Time;durP1;ratioP1;P1;durP2;ratioP2;P2;SDS_P1;SDS_P2;PMS_P1;PMS_P2;Temp;Humidity;BMP_temperature;BMP_pressure;BME280_temperature;BME280_humidity;BME280_pressure;Samples;Min_cycle;Max_cycle;Signal;HPM_P1;HPM_P2
2022/07/14 00:01:45;;;;;;;4.35;3.95;;;;;;;14.89;88.80;94681.70;1618826;87;20949;-55
2022/07/14 00:04:12;;;;;;;5.50;3.90;;;;;;;14.92;89.12;94686.29;1625431;87;20993;-55
2022/07/14 00:06:39;;;;;;;5.60;3.83;;;;;;;14.95;89.27;94689.48;1567374;89;21110;-55
2022/07/14 00:09:05;;;;;;;7.12;3.90;;;;;;;14.93;89.41;94688.42;1644716;86;21698;-55
2022/07/14 00:11:34;;;;;;;4.15;3.70;;;;;;;14.91;89.68;94693.07;1656784;85;20942;-54
2022/07/14 00:14:00;;;;;;;4.42;3.83;;;;;;;14.97;89.71;94683.48;1649026;86;21021;-55
2022/07/14 00:16:27;;;;;;;4.97;3.75;;;;;;;15.01;89.70;94690.98;1649784;85;20982;-56
2022/07/14 00:18:54;;;;;;;4.37;3.55;;;;;;;15.05;89.68;94688.78;1650127;86;20962;-55
2022/07/14 00:21:21;;;;;;;4.83;3.50;;;;;;;15.07;89.38;94689.84;1628612;87;21045;-55
2022/07/14 00:23:48;;;;;;;3.47;3.10;;;;;;;15.06;89.10;94689.70;1628352;87;21245;-54
2022/07/14 00:26:15;;;;;;;4.53;3.33;;;;;;;15.08;89.22;94697.52;1651895;86;21130;-55
2022/07/14 00:28:42;;;;;;;4.70;3.10;;;;;;;15.09;89.06;94687.35;1622726;87;21045;-55
2022/07/14 00:31:10;;;;;;;5.37;3.90;;;;;;;15.07;89.03;94695.38;1646834;85;21013;-55
2022/07/14 00:33:38;;;;;;;3.92;3.47;;;;;;;15.04;89.27;94692.16;1648675;86;20946;-56
2022/07/14 00:36:07;;;;;;;4.08;3.47;;;;;;;15.03;89.58;94694.03;1646063;86;21112;-56
2022/07/14 00:38:35;;;;;;;3.52;3.17;;;;;;;15.07;89.80;94682.91;1648867;87;21014;-55
2022/07/14 00:41:05;;;;;;;6.30;3.92;;;;;;;15.10;89.47;94682.56;1652371;85;21027;-55
2022/07/14 00:43:34;;;;;;;5.53;4.12;;;;;;;15.11;89.60;94691.80;1649717;85;21038;-55
2022/07/14 00:46:02;;;;;;;4.10;3.70;;;;;;;15.08;89.40;94694.14;1648337;86;21021;-56
2022/07/14 00:48:34;;;;;;;5.70;3.55;;;;;;;15.03;89.62;94687.85;1650039;86;21013;-55
2022/07/14 00:51:02;;;;;;;5.15;3.92;;;;;;;15.02;89.72;94687.71;1627662;87;21509;-55
2022/07/14 00:53:30;;;;;;;5.03;4.12;;;;;;;14.97;89.85;94682.84;1645072;86;21089;-56
2022/07/14 00:55:59;;;;;;;4.03;3.62;;;;;;;14.95;90.23;94684.55;1609261;86;21434;-55
2022/07/14 00:58:29;;;;;;;6.58;4.05;;;;;;;14.93;90.75;94696.13;1651341;85;21462;-56
2022/07/14 01:00:58;;;;;;;4.97;4.00;;;;;;;14.92;90.85;94689.66;1647619;86;21127;-57
2022/07/14 01:03:26;;;;;;;8.60;5.45;;;;;;;14.94;91.10;94695.48;1630533;86;21010;-56
2022/07/14 01:05:55;;;;;;;7.42;4.58;;;;;;;14.97;91.28;94684.23;1646566;86;21033;-55
2022/07/14 01:08:23;;;;;;;4.45;3.20;;;;;;;14.99;91.27;94692.08;1631223;87;21101;-55
2022/07/14 01:10:52;;;;;;;3.85;3.42;;;;;;;14.97;91.15;94689.77;1649119;86;21017;-54
2022/07/14 01:13:20;;;;;;;3.80;3.40;;;;;;;14.98;91.22;94691.30;1612360;87;21049;-55
2022/07/14 01:15:49;;;;;;;7.05;4.47;;;;;;;14.99;91.49;94689.31;1647158;85;21080;-55
2022/07/14 01:18:19;;;;;;;4.15;3.55;;;;;;;15.04;91.71;94685.86;1631609;86;20989;-55
2022/07/14 01:20:47;;;;;;;7.05;3.67;;;;;;;15.08;91.91;94687.21;1646742;86;21227;-56
2022/07/14 01:23:16;;;;;;;5.08;4.10;;;;;;;15.11;91.70;94693.18;1627063;87;21021;-55
2022/07/14 01:25:44;;;;;;;7.03;3.90;;;;;;;15.14;91.46;94693.61;1615887;86;21449;-56
2022/07/14 01:28:14;;;;;;;10.70;4.70;;;;;;;15.15;91.09;94687.45;1650552;85;21089;-55
2022/07/14 01:30:42;;;;;;;7.65;4.97;;;;;;;15.19;91.24;94693.56;1647594;86;21005;-55
2022/07/14 01:33:10;;;;;;;6.37;4.15;;;;;;;15.21;91.01;94697.37;1648881;86;21081;-55
2022/07/14 01:35:39;;;;;;;9.68;6.03;;;;;;;15.21;90.76;94692.47;1605545;86;20974;-55
2022/07/14 01:38:08;;;;;;;5.25;4.28;;;;;;;15.21;91.01;94691.08;1648806;86;21125;-55
2022/07/14 01:40:38;;;;;;;6.72;4.33;;;;;;;15.25;91.15;94695.20;1652423;86;21123;-56
2022/07/14 01:43:07;;;;;;;4.35;3.95;;;;;;;15.27;91.24;94699.64;1647859;86;21086;-54
2022/07/14 01:45:37;;;;;;;6.00;4.72;;;;;;;15.26;91.21;94698.11;1653081;86;20978;-54
2022/07/14 01:48:07;;;;;;;5.10;4.00;;;;;;;15.24;91.31;94701.98;1629317;86;21025;-55
2022/07/14 01:50:38;;;;;;;5.03;4.53;;;;;;;15.24;91.26;94702.59;1653561;86;21114;-55
2022/07/14 01:53:06;;;;;;;6.15;4.03;;;;;;;15.26;91.34;94705.03;1629418;86;21013;-55
2022/07/14 01:55:35;;;;;;;6.20;4.25;;;;;;;15.29;91.56;94701.34;1650787;86;21566;-54
2022/07/14 01:58:03;;;;;;;4.62;3.70;;;;;;;15.32;91.41;94700.38;1650191;86;20985;-55
2022/07/14 02:00:32;;;;;;;8.53;3.85;;;;;;;15.31;91.18;94699.45;1652083;86;21065;-55
2022/07/14 02:03:02;;;;;;;3.52;3.12;;;;;;;15.30;91.13;94693.16;1639963;86;21137;-56
2022/07/14 02:05:30;;;;;;;3.55;3.25;;;;;;;15.35;91.00;94697.28;1648919;85;20946;-55
2022/07/14 02:07:59;;;;;;;4.25;3.17;;;;;;;15.37;90.95;94698.30;1628562;87;20998;-55
2022/07/14 02:13:18;;;;;;;3.37;3.08;;;;;;;15.41;90.29;94700.89;1651554;86;20974;-56
2022/07/14 02:15:47;;;;;;;3.90;3.27;;;;;;;15.37;90.09;94695.53;1637835;85;21133;-56
2022/07/14 02:18:18;;;;;;;3.12;2.80;;;;;;;15.38;89.88;94692.91;1647559;86;21049;-55
2022/07/14 02:20:47;;;;;;;3.40;2.80;;;;;;;15.35;89.71;94689.70;1655605;86;21022;-55
2022/07/14 02:23:16;;;;;;;3.35;3.05;;;;;;;15.33;89.64;94688.05;1630361;87;20986;-56
2022/07/14 02:25:44;;;;;;;3.15;2.85;;;;;;;15.29;89.73;94679.77;1649603;86;21084;-56
2022/07/14 02:28:12;;;;;;;3.80;3.35;;;;;;;15.29;89.90;94686.09;1629597;86;21228;-56
2022/07/14 02:30:40;;;;;;;5.15;3.12;;;;;;;15.33;89.89;94684.52;1644436;86;21048;-56
2022/07/14 02:33:10;;;;;;;5.03;3.15;;;;;;;15.33;89.69;94690.06;1650165;86;21060;-55
2022/07/14 02:35:38;;;;;;;3.70;3.05;;;;;;;15.34;89.78;94697.13;1644305;86;21514;-55
2022/07/14 02:38:06;;;;;;;3.15;2.85;;;;;;;15.32;89.98;94701.02;1649925;85;20969;-55
2022/07/14 02:40:35;;;;;;;4.30;2.98;;;;;;;15.36;90.06;94695.39;1652253;85;21416;-55
2022/07/14 02:43:04;;;;;;;3.72;3.00;;;;;;;15.37;89.98;94699.69;1649284;86;21004;-55
2022/07/14 02:45:34;;;;;;;5.47;3.15;;;;;;;15.39;89.69;94695.82;1638326;86;20990;-57
2022/07/14 02:48:03;;;;;;;5.00;3.80;;;;;;;15.39;89.63;94699.98;1632962;86;21022;-54
2022/07/14 02:50:31;;;;;;;4.10;3.22;;;;;;;15.37;90.01;94703.86;1648950;86;21068;-54
2022/07/14 02:53:00;;;;;;;4.50;3.60;;;;;;;15.39;90.04;94704.14;1646868;86;21125;-54
2022/07/14 02:55:28;;;;;;;3.75;3.35;;;;;;;15.40;90.11;94712.59;1633615;85;20973;-56
2022/07/14 02:57:57;;;;;;;3.40;3.10;;;;;;;15.41;90.25;94707.83;1650648;86;21180;-56
2022/07/14 03:00:26;;;;;;;3.52;2.85;;;;;;;15.44;90.20;94710.42;1654178;86;21129;-56
2022/07/14 03:02:54;;;;;;;3.85;3.22;;;;;;;15.44;90.27;94706.26;1630879;86;21072;-56
2022/07/14 03:05:22;;;;;;;4.53;3.05;;;;;;;15.47;89.92;94708.06;1627347;86;21187;-55
2022/07/14 03:07:51;;;;;;;4.72;2.90;;;;;;;15.47;89.88;94715.00;1643278;86;21027;-55
2022/07/14 03:10:19;;;;;;;7.10;3.17;;;;;;;15.47;89.69;94719.16;1629549;87;21132;-55
2022/07/14 03:12:47;;;;;;;7.12;2.98;;;;;;;15.45;89.79;94712.55;1649432;86;21093;-55
2022/07/14 03:15:17;;;;;;;7.97;3.15;;;;;;;15.41;89.75;94719.70;1645715;86;21199;-55
2022/07/14 03:17:44;;;;;;;8.68;3.90;;;;;;;15.37;90.20;94717.72;1648695;86;21235;-55
2022/07/14 03:20:14;;;;;;;8.25;4.00;;;;;;;15.39;90.24;94719.38;1645944;86;21014;-55
2022/07/14 03:22:42;;;;;;;5.60;3.98;;;;;;;15.38;90.15;94716.47;1649932;85;20981;-55
2022/07/14 03:25:12;;;;;;;5.55;3.80;;;;;;;15.41;90.38;94719.70;1645634;86;21041;-56
2022/07/14 03:27:41;;;;;;;5.90;3.75;;;;;;;15.43;90.23;94719.20;1650985;85;21049;-55
2022/07/14 03:30:11;;;;;;;3.95;3.42;;;;;;;15.43;90.06;94722.75;1650306;85;21106;-55
2022/07/14 03:32:41;;;;;;;4.33;3.00;;;;;;;15.42;90.03;94725.38;1649183;86;21581;-55
2022/07/14 03:35:10;;;;;;;5.20;3.55;;;;;;;15.44;90.49;94727.05;1649523;86;21462;-55
2022/07/14 03:37:38;;;;;;;4.83;3.08;;;;;;;15.50;90.70;94724.34;1627171;87;21021;-55
2022/07/14 03:40:07;;;;;;;3.50;3.20;;;;;;;15.55;90.28;94729.99;1647351;85;21449;-56
2022/07/14 03:42:35;;;;;;;9.98;3.83;;;;;;;15.60;90.15;94726.56;1648468;86;21601;-56
2022/07/14 03:45:04;;;;;;;6.90;4.40;;;;;;;15.63;89.97;94722.83;1645156;85;20982;-55
2022/07/14 03:47:33;;;;;;;12.78;4.17;;;;;;;15.67;90.06;94724.78;1646851;86;20989;-56
2022/07/14 03:50:03;;;;;;;12.50;4.35;;;;;;;15.72;89.85;94726.87;1649045;86;21026;-56
2022/07/14 03:52:32;;;;;;;4.70;4.00;;;;;;;15.72;89.73;94721.33;1651335;86;21085;-55
2022/07/14 03:55:00;;;;;;;5.03;3.42;;;;;;;15.75;89.88;94724.52;1649143;86;21534;-56
2022/07/14 03:57:30;;;;;;;12.85;4.12;;;;;;;15.80;89.75;94720.31;1630771;86;21025;-55
2022/07/14 03:59:59;;;;;;;4.90;3.45;;;;;;;15.85;89.57;94725.17;1648940;86;21091;-56
2022/07/14 04:02:26;;;;;;;7.05;3.58;;;;;;;15.84;89.51;94720.26;1609531;86;21091;-55
2022/07/14 04:04:54;;;;;;;8.65;4.12;;;;;;;15.84;89.34;94721.64;1648157;86;20969;-55
2022/07/14 04:07:24;;;;;;;4.58;3.35;;;;;;;15.84;89.32;94721.64;1657814;85;21145;-54
2022/07/14 04:09:54;;;;;;;6.30;4.03;;;;;;;15.85;89.38;94713.46;1648779;85;20966;-55
2022/07/14 04:12:23;;;;;;;7.53;4.05;;;;;;;15.89;89.29;94718.83;1632230;86;21025;-56
2022/07/14 04:14:54;;;;;;;7.75;3.75;;;;;;;15.89;89.40;94728.53;1638029;86;21084;-55
2022/07/14 04:17:22;;;;;;;6.45;3.70;;;;;;;15.92;89.28;94731.73;1633013;86;21029;-55
2022/07/14 04:19:51;;;;;;;11.68;3.85;;;;;;;15.96;89.11;94725.35;1627721;86;21040;-58
2022/07/14 04:22:19;;;;;;;8.90;4.03;;;;;;;16.01;89.38;94732.98;1648561;85;20967;-56
2022/07/14 04:24:47;;;;;;;8.93;4.50;;;;;;;16.09;89.21;94728.58;1650729;86;20977;-55
2022/07/14 04:27:19;;;;;;;8.93;3.60;;;;;;;16.18;89.05;94737.55;1649235;86;21123;-55
2022/07/14 04:29:48;;;;;;;6.37;3.67;;;;;;;16.23;88.05;94729.91;1628021;86;20965;-54
2022/07/14 04:32:15;;;;;;;5.75;3.17;;;;;;;16.25;87.39;94731.58;1609002;86;21306;-53
2022/07/14 04:34:44;;;;;;;7.10;3.95;;;;;;;16.25;87.18;94734.36;1646493;85;21071;-54
2022/07/14 04:37:12;;;;;;;5.65;3.22;;;;;;;16.26;87.36;94740.69;1649463;86;20994;-54
2022/07/14 04:39:41;;;;;;;5.67;4.10;;;;;;;16.28;87.32;94740.33;1628733;86;21073;-55
2022/07/14 04:42:10;;;;;;;8.00;4.62;;;;;;;16.30;86.82;94739.22;1647717;85;21088;-54
2022/07/14 04:44:41;;;;;;;5.92;4.33;;;;;;;16.32;86.69;94742.27;1659044;84;21149;-55
2022/07/14 04:47:10;;;;;;;8.45;3.60;;;;;;;16.35;86.62;94753.85;1633903;85;21037;-55
2022/07/14 04:52:24;;;;;;;11.12;4.20;;;;;;;16.48;86.51;94759.81;1666050;85;21249;-56
2022/07/14 04:54:54;;;;;;;8.65;3.98;;;;;;;16.52;86.21;94759.02;1668965;84;21026;-55
2022/07/14 04:57:43;;;;;;;3.80;3.40;;;;;;;16.55;86.07;94752.48;1674799;85;21787;-55
2022/07/14 05:00:14;;;;;;;3.90;3.50;;;;;;;16.59;85.88;94753.81;1662324;84;21024;-55
2022/07/14 05:02:43;;;;;;;5.60;3.40;;;;;;;16.68;85.99;94758.44;1661356;84;21022;-56
2022/07/14 05:05:12;;;;;;;4.20;3.67;;;;;;;16.78;85.61;94762.62;1643556;85;21031;-56
2022/07/14 05:07:41;;;;;;;6.53;3.62;;;;;;;16.85;85.16;94757.41;1667350;85;21062;-56
2022/07/14 05:10:11;;;;;;;4.37;3.25;;;;;;;16.93;84.96;94761.28;1670002;84;21617;-56
2022/07/14 05:12:39;;;;;;;3.80;3.37;;;;;;;17.04;84.36;94756.48;1668399;85;21416;-56
2022/07/14 05:15:08;;;;;;;4.30;3.12;;;;;;;17.12;83.88;94748.61;1664898;84;21025;-56
2022/07/14 05:17:37;;;;;;;14.65;3.72;;;;;;;17.18;83.45;94752.85;1660374;84;21474;-56
2022/07/14 05:20:08;;;;;;;5.83;3.92;;;;;;;17.21;83.01;94758.20;1644155;86;21078;-56
2022/07/14 05:22:38;;;;;;;3.70;3.30;;;;;;;17.24;82.81;94750.27;1651923;85;21264;-56
2022/07/14 05:25:09;;;;;;;7.72;4.47;;;;;;;17.30;82.26;94755.89;1677563;84;21645;-56
2022/07/14 05:27:38;;;;;;;13.55;5.92;;;;;;;17.31;81.82;94752.61;1656548;85;20992;-55
2022/07/14 05:30:07;;;;;;;4.40;3.87;;;;;;;17.35;81.94;94752.43;1652890;84;20986;-55
2022/07/14 05:32:37;;;;;;;11.80;5.05;;;;;;;17.40;81.74;94744.76;1680452;85;20959;-56
2022/07/14 05:35:08;;;;;;;10.08;4.45;;;;;;;17.47;81.34;94747.13;1665357;84;21392;-55
2022/07/14 05:37:38;;;;;;;6.20;4.28;;;;;;;17.52;81.22;94747.80;1651464;85;21514;-56
2022/07/14 05:40:08;;;;;;;5.80;4.20;;;;;;;17.53;80.69;94750.71;1658613;85;20989;-57
2022/07/14 05:42:37;;;;;;;8.93;3.77;;;;;;;17.54;80.59;94753.02;1649053;85;21101;-55
2022/07/14 05:45:07;;;;;;;7.75;3.95;;;;;;;17.59;80.46;94744.56;1643723;85;21037;-55
2022/07/14 05:47:34;;;;;;;11.18;4.67;;;;;;;17.65;80.40;94750.96;1656466;84;21232;-63
2022/07/14 05:50:03;;;;;;;24.45;6.58;;;;;;;17.70;80.33;94741.89;1639800;84;21461;-55
2022/07/14 05:52:31;;;;;;;23.83;6.78;;;;;;;17.70;80.31;94747.45;1658347;84;21246;-56
2022/07/14 05:55:00;;;;;;;11.60;4.85;;;;;;;17.68;80.57;94745.80;1663821;85;21069;-56
2022/07/14 05:57:29;;;;;;;11.75;4.85;;;;;;;17.70;80.63;94748.23;1656707;84;21097;-57
2022/07/14 05:59:57;;;;;;;8.63;3.87;;;;;;;17.78;80.52;94748.52;1647454;84;21257;-51
2022/07/14 06:02:24;;;;;;;7.60;4.37;;;;;;;17.85;80.59;94743.92;1654512;84;21660;-58
2022/07/14 06:04:53;;;;;;;7.00;3.45;;;;;;;17.92;80.18;94745.62;1635349;86;22244;-59
2022/07/14 06:07:20;;;;;;;10.40;4.35;;;;;;;17.92;80.25;94741.45;1650757;84;21041;-59
2022/07/14 06:09:51;;;;;;;10.50;4.67;;;;;;;17.94;80.40;94738.16;1668485;83;20994;-57
2022/07/14 06:12:20;;;;;;;4.95;3.87;;;;;;;17.90;80.25;94743.20;1679335;83;21091;-56
2022/07/14 06:14:48;;;;;;;20.02;4.00;;;;;;;17.87;80.18;94753.92;1651262;85;21030;-59
2022/07/14 06:17:16;;;;;;;8.90;5.10;;;;;;;17.85;80.01;94750.88;1645758;85;21116;-62
2022/07/14 06:19:46;;;;;;;8.35;3.95;;;;;;;17.82;79.67;94742.87;1644261;83;21242;-63
2022/07/14 06:22:16;;;;;;;12.83;4.93;;;;;;;17.84;79.40;94734.05;1600545;87;21163;-60
2022/07/14 06:24:44;;;;;;;6.78;5.80;;;;;;;17.85;79.38;94743.92;1654933;85;21827;-62
2022/07/14 06:27:14;;;;;;;10.95;4.92;;;;;;;17.86;79.54;94739.88;1642012;84;21144;-62
2022/07/14 06:29:42;;;;;;;12.37;5.45;;;;;;;17.92;79.65;94736.50;1645771;84;21482;-59
2022/07/14 06:32:10;;;;;;;10.35;5.20;;;;;;;18.00;79.38;94734.80;1641656;84;21159;-59
2022/07/14 06:34:41;;;;;;;9.80;4.20;;;;;;;18.06;78.89;94734.20;1629258;85;21465;-61
2022/07/14 06:37:20;;;;;;;12.75;8.90;;;;;;;18.14;78.09;94734.65;1662046;85;21192;-62
2022/07/14 06:39:49;;;;;;;12.88;7.25;;;;;;;18.25;78.02;94728.52;1646552;86;21074;-61
2022/07/14 06:42:20;;;;;;;9.50;6.40;;;;;;;18.39;77.87;94715.09;1645446;85;21064;-60
2022/07/14 06:44:53;;;;;;;10.80;5.70;;;;;;;18.54;77.31;94717.08;1645121;86;21189;-60
2022/07/14 06:47:21;;;;;;;6.40;4.62;;;;;;;18.67;75.99;94715.98;1654789;84;21087;-60
2022/07/14 06:49:51;;;;;;;15.18;5.53;;;;;;;18.73;74.90;94718.18;1663457;84;21984;-57
2022/07/14 06:52:21;;;;;;;12.80;4.95;;;;;;;18.83;74.73;94720.13;1645865;84;21031;-58
2022/07/14 06:54:50;;;;;;;6.30;3.60;;;;;;;18.99;74.56;94714.59;1665468;84;21018;-59
2022/07/14 06:57:19;;;;;;;8.65;4.55;;;;;;;19.19;74.03;94714.42;1668776;85;22308;-59
2022/07/14 06:59:50;;;;;;;5.15;3.98;;;;;;;19.39;73.35;94719.80;1659962;84;21100;-62
2022/07/14 07:02:22;;;;;;;8.70;3.60;;;;;;;19.57;73.05;94716.52;1621319;85;21068;-62
2022/07/14 07:07:20;;;;;;;7.05;3.10;;;;;;;19.90;72.09;94713.01;1624457;85;21069;-60
2022/07/14 07:09:48;;;;;;;4.90;2.62;;;;;;;20.01;71.08;94706.00;1655758;85;21478;-64
2022/07/14 07:12:17;;;;;;;5.33;3.10;;;;;;;20.09;70.36;94707.80;1646596;83;21098;-57
2022/07/14 07:14:46;;;;;;;7.62;2.90;;;;;;;20.18;69.90;94707.55;1631052;85;21901;-61
2022/07/14 07:17:14;;;;;;;6.62;3.40;;;;;;;20.34;69.50;94705.38;1641927;85;21084;-60
2022/07/14 07:19:42;;;;;;;5.35;3.35;;;;;;;20.52;68.79;94692.25;1663389;83;21036;-57
2022/07/14 07:22:11;;;;;;;4.85;3.85;;;;;;;20.73;68.93;94694.84;1627594;86;21046;-54
2022/07/14 07:24:43;;;;;;;7.62;4.20;;;;;;;20.93;66.21;94689.69;1651850;83;20999;-60
2022/07/14 07:27:12;;;;;;;6.47;4.17;;;;;;;21.11;65.34;94686.29;1654357;84;21228;-60
2022/07/14 07:29:42;;;;;;;7.08;4.22;;;;;;;21.28;64.34;94680.63;1655474;85;21541;-59
2022/07/14 07:32:13;;;;;;;6.67;4.72;;;;;;;21.42;62.71;94671.87;1640194;85;21287;-59
2022/07/14 07:34:44;;;;;;;7.03;3.83;;;;;;;21.60;61.58;94678.86;1654231;85;21091;-61
2022/07/14 07:37:14;;;;;;;;;;;;;;;21.80;61.75;94664.50;1634382;85;21091;-55
2022/07/14 07:39:42;;;;;;;4.50;2.92;;;;;;;22.02;59.50;94667.11;1658887;83;21135;-57
2022/07/14 07:42:10;;;;;;;5.30;2.40;;;;;;;22.30;57.62;94668.36;1664024;83;21006;-57
2022/07/14 07:44:39;;;;;;;3.17;2.15;;;;;;;22.57;54.44;94666.69;1667382;83;21064;-59
2022/07/14 07:47:07;;;;;;;5.58;2.12;;;;;;;22.83;54.22;94657.72;1646009;84;21077;-62
2022/07/14 07:49:36;;;;;;;3.58;2.27;;;;;;;23.07;52.70;94656.26;1676752;83;21022;-58
2022/07/14 07:52:05;;;;;;;6.67;1.72;;;;;;;23.31;51.41;94668.20;1653523;83;21831;-57
2022/07/14 07:54:33;;;;;;;4.90;2.00;;;;;;;23.53;48.65;94656.65;1650496;85;21173;-60
2022/07/14 07:57:02;;;;;;;6.70;2.33;;;;;;;23.73;49.36;94661.70;1671237;84;21194;-58
2022/07/14 07:59:31;;;;;;;8.18;2.37;;;;;;;23.95;49.55;94676.08;1629185;85;37848;-60
2022/07/14 08:02:01;;;;;;;2.95;1.90;;;;;;;24.16;47.69;94666.50;1684565;84;21558;-58
2022/07/14 08:04:29;;;;;;;7.12;2.55;;;;;;;24.34;47.34;94672.06;1665323;83;21232;-57
2022/07/14 08:06:57;;;;;;;9.80;5.28;;;;;;;24.48;47.18;94669.38;1656178;84;21094;-57
2022/07/14 08:09:27;;;;;;;6.03;4.20;;;;;;;24.59;46.45;94667.03;1667962;83;21019;-57
2022/07/14 08:11:55;;;;;;;3.00;1.90;;;;;;;24.69;46.33;94666.70;1635326;84;21585;-56
2022/07/14 08:17:11;;;;;;;3.20;2.10;;;;;;;24.89;46.27;94660.42;1659026;84;21107;-56
2022/07/14 08:19:42;;;;;;;6.47;2.42;;;;;;;25.02;46.42;94668.22;1640827;85;21120;-58
2022/07/14 08:22:13;;;;;;;8.45;2.45;;;;;;;25.14;45.09;94668.75;1644914;85;21084;-55
2022/07/14 08:24:44;;;;;;;7.87;2.45;;;;;;;25.24;45.21;94671.23;1652157;84;21074;-59
2022/07/14 08:27:13;;;;;;;3.00;1.57;;;;;;;25.36;44.42;94661.25;1624234;85;21090;-56
2022/07/14 08:29:42;;;;;;;1.75;1.65;;;;;;;25.48;43.99;94665.34;1647580;85;21617;-58
2022/07/14 08:32:09;;;;;;;4.00;2.00;;;;;;;25.56;44.01;94661.31;1661128;85;21007;-60
2022/07/14 08:34:37;;;;;;;6.28;1.90;;;;;;;25.65;44.13;94654.45;1649945;84;21084;-55
2022/07/14 08:37:06;;;;;;;6.05;1.90;;;;;;;25.69;42.53;94652.05;1658260;84;21669;-59
2022/07/14 08:39:35;;;;;;;1.57;1.47;;;;;;;25.68;41.67;94640.00;1662608;83;21070;-58
2022/07/14 08:42:04;;;;;;;3.85;2.20;;;;;;;25.67;40.85;94656.07;1670311;84;21220;-58
2022/07/14 08:44:33;;;;;;;8.58;1.67;;;;;;;25.67;42.11;94669.49;1647325;85;21102;-56
2022/07/14 08:47:01;;;;;;;6.03;2.05;;;;;;;25.75;41.11;94666.76;1647053;84;21093;-58
2022/07/14 08:49:28;;;;;;;6.05;1.62;;;;;;;25.81;41.61;94661.77;1619646;85;21149;-58
2022/07/14 08:51:56;;;;;;;3.75;1.77;;;;;;;25.93;41.46;94660.97;1670814;83;21141;-57
2022/07/14 08:54:24;;;;;;;3.77;1.85;;;;;;;26.06;41.27;94660.89;1667182;83;21808;-58
2022/07/14 08:56:52;;;;;;;2.62;1.87;;;;;;;26.21;40.97;94664.63;1657962;84;21053;-57
2022/07/14 08:59:22;;;;;;;2.95;2.27;;;;;;;26.38;41.56;94656.48;1660589;85;21084;-58
2022/07/14 09:01:50;;;;;;;2.08;1.50;;;;;;;26.54;40.46;94655.33;1660744;84;21881;-58
2022/07/14 09:04:17;;;;;;;7.50;2.10;;;;;;;26.59;39.13;94654.41;1661225;84;21054;-57
2022/07/14 09:06:53;;;;;;;4.17;2.10;;;;;;;26.58;38.25;94655.72;1635104;85;21111;-59
2022/07/14 09:09:25;;;;;;;2.17;1.60;;;;;;;26.54;38.15;94653.14;1659929;85;21122;-57
2022/07/14 09:12:00;;;;;;;9.20;2.00;;;;;;;26.51;37.92;94655.00;1638041;84;21046;-58
2022/07/14 09:15:44;;;;;;;5.05;1.72;;;;;;;26.49;38.09;94651.97;1667207;83;21084;-59
2022/07/14 09:17:17;;;;;;;1.80;1.60;;;;;;;26.42;39.49;94658.30;1661517;84;21526;-56
2022/07/14 09:20:20;;;;;;;5.10;1.77;;;;;;;26.45;39.63;94650.14;1645303;85;21314;-57
2022/07/14 09:22:58;;;;;;;6.17;2.10;;;;;;;26.57;38.75;94653.44;1634262;86;21041;-59
2022/07/14 09:25:29;;;;;;;5.67;1.70;;;;;;;26.74;38.99;94650.92;1652518;85;21499;-61
2022/07/14 09:27:58;;;;;;;2.70;1.70;;;;;;;26.92;39.27;94652.09;1642647;85;21078;-53
2022/07/14 09:30:26;;;;;;;2.95;1.55;;;;;;;27.01;36.58;94650.15;1627785;85;21121;-54
2022/07/14 09:33:05;;;;;;;6.37;1.85;;;;;;;26.98;36.68;94648.44;1638882;85;21306;-57
2022/07/14 09:35:53;;;;;;;5.20;1.50;;;;;;;27.00;37.61;94656.38;1649131;85;21054;-60
2022/07/14 09:38:25;;;;;;;4.45;1.52;;;;;;;27.10;36.67;94660.97;1656721;85;21143;-59
2022/07/14 09:40:53;;;;;;;5.65;1.50;;;;;;;27.14;36.33;94652.89;1666777;83;21039;-55
2022/07/14 09:43:21;;;;;;;4.37;1.60;;;;;;;27.18;36.89;94651.13;1616264;85;21153;-55
2022/07/14 09:45:50;;;;;;;2.10;1.80;;;;;;;27.25;37.59;94656.05;1660179;85;21858;-62
2022/07/14 09:48:23;;;;;;;5.70;1.47;;;;;;;27.34;36.75;94647.80;1651662;85;21155;-61
2022/07/14 09:50:54;;;;;;;11.00;1.67;;;;;;;27.48;37.00;94649.82;1659903;85;21469;-62
2022/07/14 09:53:31;;;;;;;6.45;1.57;;;;;;;27.57;35.48;94659.94;1643565;85;21495;-61
2022/07/14 09:56:08;;;;;;;5.28;1.60;;;;;;;27.53;36.22;94651.07;1649444;84;21031;-63
2022/07/14 09:58:51;;;;;;;8.13;1.55;;;;;;;27.48;34.72;94653.42;1653132;85;21231;-61
2022/07/14 10:01:21;;;;;;;4.05;1.60;;;;;;;27.29;35.79;94646.55;1647719;84;21042;-61
2022/07/14 10:03:54;;;;;;;5.83;2.10;;;;;;;27.18;35.56;94653.95;1662457;84;21585;-64
2022/07/14 10:06:27;;;;;;;4.12;2.00;;;;;;;27.15;35.66;94651.58;1620038;86;21084;-61
2022/07/14 10:08:57;;;;;;;4.15;1.50;;;;;;;27.21;36.87;94643.68;1646559;86;21496;-61
2022/07/14 10:11:26;;;;;;;7.30;1.77;;;;;;;27.39;36.46;94638.39;1649708;85;21260;-62
2022/07/14 10:14:00;;;;;;;19.40;3.60;;;;;;;27.46;35.68;94634.85;1649491;85;21519;-64
2022/07/14 10:16:34;;;;;;;5.47;1.40;;;;;;;27.45;36.83;94644.65;1637231;84;21198;-63
2022/07/14 10:19:05;;;;;;;2.20;1.30;;;;;;;27.61;36.99;94644.03;1655484;85;21166;-62
2022/07/14 10:21:48;;;;;;;6.50;2.00;;;;;;;27.85;34.96;94650.62;1667940;85;21144;-62
2022/07/14 10:24:20;;;;;;;8.08;1.52;;;;;;;28.00;34.45;94631.61;1635572;86;21847;-61
2022/07/14 10:26:49;;;;;;;5.60;2.42;;;;;;;28.04;34.54;94627.75;1644569;85;21049;-63
2022/07/14 10:29:18;;;;;;;2.30;1.40;;;;;;;28.00;34.67;94644.34;1658021;85;21540;-59
2022/07/14 10:32:12;;;;;;;9.40;2.02;;;;;;;27.97;35.46;94642.62;1656280;85;21114;-61
2022/07/14 10:35:10;;;;;;;5.75;1.90;;;;;;;28.08;36.02;94640.85;1668422;85;21194;-63
2022/07/14 10:38:07;;;;;;;9.73;2.02;;;;;;;28.38;35.57;94642.33;1664863;84;21166;-59
2022/07/14 10:41:09;;;;;;;11.55;2.00;;;;;;;28.56;35.94;94652.52;1650966;85;21120;-62
2022/07/14 10:44:00;;;;;;;;;;;;;;;28.44;35.55;94647.87;1651584;86;21100;-63
2022/07/14 10:46:43;;;;;;;3.47;1.80;;;;;;;28.11;36.70;94644.73;1650647;84;20275;-61
2022/07/14 10:49:12;;;;;;;3.12;1.70;;;;;;;27.90;35.87;94646.20;1657027;83;21036;-61
2022/07/14 10:51:49;;;;;;;4.37;1.98;;;;;;;27.78;36.18;94641.47;1648292;85;21127;-62
2022/07/14 10:54:30;;;;;;;3.70;1.72;;;;;;;27.85;36.74;94635.83;1654365;84;21548;-61
2022/07/14 10:57:13;;;;;;;4.62;2.27;;;;;;;28.10;35.24;94631.14;1639319;86;21165;-61
2022/07/14 10:59:44;;;;;;;2.27;1.82;;;;;;;28.60;35.52;94623.14;1663309;85;21022;-61
2022/07/14 11:02:18;;;;;;;12.98;2.30;;;;;;;29.08;35.13;94634.67;1654497;83;21139;-61
2022/07/14 11:05:08;;;;;;;3.72;2.08;;;;;;;29.39;34.81;94631.19;1657545;85;21213;-65
2022/07/14 11:08:12;;;;;;;15.20;1.95;;;;;;;29.71;33.45;94624.81;1642579;85;21114;-67
2022/07/14 11:10:46;;;;;;;2.27;1.30;;;;;;;29.80;32.83;94622.77;1648387;84;21113;-64
2022/07/14 11:13:19;;;;;;;3.58;1.50;;;;;;;29.71;33.57;94626.23;1633362;85;22278;-63
2022/07/14 11:15:59;;;;;;;8.75;1.85;;;;;;;29.85;33.33;94631.73;1652491;84;21114;-65
2022/07/14 11:18:33;;;;;;;17.50;2.42;;;;;;;29.97;32.73;94621.52;1657377;84;21225;-65
2022/07/14 11:21:15;;;;;;;6.55;2.10;;;;;;;30.22;32.53;94625.17;1662202;85;21141;-66
2022/07/14 11:23:55;;;;;;;6.10;2.10;;;;;;;30.37;31.85;94629.31;1662355;85;21140;-69
2022/07/14 11:26:47;;;;;;;2.72;1.75;;;;;;;30.59;31.63;94626.98;1626504;85;21390;-61
2022/07/14 11:29:13;;;;;;;4.40;1.87;;;;;;;30.93;30.67;94621.34;1649931;84;21091;-57
2022/07/14 11:31:51;;;;;;;6.92;1.85;;;;;;;31.33;30.79;94628.22;1648033;86;21169;-54
2022/07/14 11:37:10;;;;;;;7.75;1.52;;;;;;;31.22;30.25;94642.96;1637438;85;21211;-56
2022/07/14 11:39:39;;;;;;;5.15;1.50;;;;;;;31.31;31.61;94621.71;1642827;86;21115;-58
2022/07/14 11:42:12;;;;;;;7.72;1.40;;;;;;;31.65;30.75;94633.08;1635415;86;21104;-63
2022/07/14 11:44:51;;;;;;;3.33;1.57;;;;;;;31.96;30.10;94628.46;1633788;86;21881;-62
2022/07/14 11:47:23;;;;;;;7.10;1.95;;;;;;;31.97;29.76;94625.69;1644465;86;20974;-55
2022/07/14 11:50:07;;;;;;;3.58;1.35;;;;;;;31.62;30.44;94626.35;1650674;84;21080;-61
2022/07/14 11:52:52;;;;;;;7.13;1.30;;;;;;;31.40;30.44;94632.40;1646575;86;21143;-61
2022/07/14 11:55:21;;;;;;;6.87;2.55;;;;;;;31.41;30.48;94630.31;1638375;84;21819;-60
2022/07/14 11:57:51;;;;;;;5.33;1.80;;;;;;;31.80;29.56;94633.55;1657249;85;21765;-60
2022/07/14 12:00:20;;;;;;;4.12;1.85;;;;;;;31.63;29.68;94635.70;1653351;85;21233;-61
2022/07/14 12:02:53;;;;;;;5.08;2.15;;;;;;;31.18;30.74;94627.73;1661496;85;21101;-61
2022/07/14 12:05:27;;;;;;;8.90;1.80;;;;;;;30.58;31.30;94635.41;1650572;84;21575;-59